Time;durP1;ratioP1;P1;durP2;ratioP2;P2;SDS_P1;SDS_P2;PMS_P1;PMS_P2;Temp;Humidity;BMP_temperature;BMP_pressure;BME280_temperature;BME280_humidity;BME280_pressure;Samples;Min_cycle;Max_cycle;Signal;HPM_P1;HPM_P2
2023/05/26 00:02:08;;;;;;;7.82;4.65;;;14.20;1.00;;;;;;7337578;19;20018;-69
2023/05/26 00:04:43;;;;;;;10.63;5.38;;;14.20;1.00;;;;;;7367610;19;20036;-69
2023/05/26 00:07:15;;;;;;;9.63;4.55;;;14.20;1.00;;;;;;7396015;19;20117;-69
2023/05/26 00:09:45;;;;;;;9.13;4.22;;;14.20;1.00;;;;;;7393366;19;20018;-68
2023/05/26 00:12:15;;;;;;;7.60;5.03;;;14.20;1.00;;;;;;7396259;19;20085;-68
2023/05/26 00:14:46;;;;;;;7.68;4.95;;;14.10;1.00;;;;;;7394821;19;20034;-68
2023/05/26 00:17:16;;;;;;;7.65;4.30;;;14.10;1.00;;;;;;7393356;19;20015;-69
2023/05/26 00:19:51;;;;;;;7.60;4.40;;;14.10;1.00;;;;;;7392668;19;20038;-69
2023/05/26 00:22:22;;;;;;;7.97;4.75;;;14.10;1.00;;;;;;7395043;19;20033;-69
2023/05/26 00:24:52;;;;;;;8.75;5.20;;;14.10;1.00;;;;;;7394096;19;20015;-68
2023/05/26 00:27:22;;;;;;;8.43;4.80;;;14.10;1.00;;;;;;7393910;19;20018;-69
2023/05/26 00:29:52;;;;;;;9.68;4.60;;;14.10;1.00;;;;;;7392235;19;20015;-67
2023/05/26 00:32:22;;;;;;;11.80;5.65;;;14.10;1.00;;;;;;7394386;19;20019;-68
2023/05/26 00:34:54;;;;;;;9.23;4.85;;;14.00;1.00;;;;;;7393609;19;20015;-68
2023/05/26 00:37:25;;;;;;;6.22;4.78;;;14.00;1.00;;;;;;7393649;19;20007;-68
2023/05/26 00:39:54;;;;;;;8.23;4.82;;;14.10;1.00;;;;;;7392066;19;20043;-68
2023/05/26 00:42:24;;;;;;;9.80;5.40;;;14.00;1.00;;;;;;7394481;19;20361;-68
2023/05/26 00:44:55;;;;;;;8.18;4.55;;;14.00;1.00;;;;;;7393232;19;20471;-68
2023/05/26 00:47:25;;;;;;;10.02;4.90;;;14.00;1.00;;;;;;7390321;19;20039;-68
2023/05/26 00:49:57;;;;;;;8.15;4.50;;;14.00;1.00;;;;;;7366108;19;20054;-68
2023/05/26 00:52:28;;;;;;;9.85;5.00;;;14.00;1.00;;;;;;7371269;19;20050;-68
2023/05/26 00:54:58;;;;;;;11.15;4.93;;;14.00;1.00;;;;;;7355441;19;20070;-69
2023/05/26 00:57:29;;;;;;;12.60;4.75;;;14.00;1.00;;;;;;7369645;19;20479;-69
2023/05/26 00:59:59;;;;;;;10.25;4.50;;;14.00;1.00;;;;;;7389567;19;20024;-69
2023/05/26 01:02:30;;;;;;;6.50;4.65;;;14.00;1.00;;;;;;7370742;19;20022;-69
2023/05/26 01:05:03;;;;;;;8.48;4.70;;;14.00;1.00;;;;;;7368632;19;20018;-69
2023/05/26 01:07:33;;;;;;;8.77;4.60;;;14.00;1.00;;;;;;7371194;19;20407;-69
2023/05/26 01:10:03;;;;;;;7.72;5.15;;;14.10;1.00;;;;;;7368439;19;20066;-69
2023/05/26 01:12:38;;;;;;;9.35;5.28;;;14.00;1.00;;;;;;7371112;19;20070;-69
2023/05/26 01:15:11;;;;;;;7.07;4.32;;;14.20;1.00;;;;;;7390777;19;20010;-69
2023/05/26 01:17:50;;;;;;;8.55;4.82;;;14.10;1.00;;;;;;7369985;19;20017;-69
2023/05/26 01:20:29;;;;;;;10.88;5.93;;;14.10;1.00;;;;;;7365618;19;20093;-69
2023/05/26 01:23:40;;;;;;;7.18;4.95;;;14.10;1.00;;;;;;7369964;19;20495;-68
2023/05/26 01:26:34;;;;;;;8.95;5.15;;;14.10;1.00;;;;;;7369101;19;20022;-69
2023/05/26 01:29:09;;;;;;;8.95;5.35;;;14.00;1.00;;;;;;7369139;19;20024;-68
2023/05/26 01:31:40;;;;;;;12.18;5.05;;;14.10;1.00;;;;;;7368037;19;20514;-68
2023/05/26 01:34:10;;;;;;;10.07;5.30;;;14.00;1.00;;;;;;7368759;19;20015;-68
2023/05/26 01:36:40;;;;;;;11.13;5.07;;;14.00;1.00;;;;;;7369870;19;20085;-68
2023/05/26 01:39:11;;;;;;;9.55;5.50;;;14.00;1.00;;;;;;7389563;19;20383;-69
2023/05/26 01:41:47;;;;;;;8.20;5.00;;;14.00;1.00;;;;;;7368268;19;20041;-69
2023/05/26 01:44:26;;;;;;;9.13;4.82;;;14.00;1.00;;;;;;7368365;19;20031;-69
2023/05/26 01:46:56;;;;;;;11.75;5.50;;;14.00;1.00;;;;;;7368181;19;20015;-69
2023/05/26 01:49:31;;;;;;;10.10;5.35;;;14.00;1.00;;;;;;7367771;19;20045;-69
2023/05/26 01:52:04;;;;;;;9.80;5.63;;;14.00;1.00;;;;;;7368138;19;20019;-68
2023/05/26 01:54:37;;;;;;;6.38;4.97;;;13.90;1.00;;;;;;7369033;19;20000;-68
2023/05/26 01:57:09;;;;;;;10.13;5.15;;;13.90;1.00;;;;;;7386869;19;20015;-69
2023/05/26 01:59:42;;;;;;;9.02;5.20;;;13.90;1.00;;;;;;7366765;19;20018;-69
2023/05/26 02:02:12;;;;;;;7.15;4.65;;;13.80;1.00;;;;;;7368479;19;20006;-69
2023/05/26 02:04:42;;;;;;;10.75;5.60;;;13.80;1.00;;;;;;7368636;19;20014;-69
2023/05/26 02:07:12;;;;;;;10.50;5.43;;;13.80;1.00;;;;;;7367911;19;20006;-69
2023/05/26 02:09:42;;;;;;;10.70;5.55;;;13.80;1.00;;;;;;7366261;19;20468;-69
2023/05/26 02:12:13;;;;;;;10.50;6.20;;;13.70;1.00;;;;;;7390543;19;20478;-69
2023/05/26 02:14:45;;;;;;;11.52;5.28;;;13.70;1.00;;;;;;7368489;19;20007;-68
2023/05/26 02:17:17;;;;;;;8.00;5.25;;;13.70;1.00;;;;;;7367662;19;20006;-69
2023/05/26 02:19:48;;;;;;;8.98;5.70;;;13.70;1.00;;;;;;7365162;19;20502;-69
2023/05/26 02:22:18;;;;;;;10.48;5.65;;;13.70;1.00;;;;;;7368159;19;20035;-68
2023/05/26 02:24:48;;;;;;;9.45;5.82;;;13.60;1.00;;;;;;7367992;19;20096;-68
2023/05/26 02:27:18;;;;;;;11.57;6.22;;;13.60;1.00;;;;;;7368185;19;20382;-69
2023/05/26 02:29:50;;;;;;;12.15;5.63;;;13.60;1.00;;;;;;7386524;19;20053;-69
2023/05/26 02:32:20;;;;;;;11.77;5.63;;;13.60;1.00;;;;;;7367414;19;20089;-68
2023/05/26 02:34:50;;;;;;;9.55;5.65;;;13.70;1.00;;;;;;7367020;19;20018;-69
2023/05/26 02:37:22;;;;;;;7.07;5.07;;;13.70;1.00;;;;;;7367644;19;20011;-69
2023/05/26 02:39:52;;;;;;;10.07;5.53;;;13.70;1.00;;;;;;7369923;19;20034;-68
2023/05/26 02:42:22;;;;;;;11.35;6.22;;;13.60;1.00;;;;;;7380929;19;20466;-69
2023/05/26 02:44:54;;;;;;;10.65;5.55;;;13.60;1.00;;;;;;7402224;19;20050;-68
2023/05/26 02:47:24;;;;;;;10.23;5.32;;;13.60;1.00;;;;;;7380772;19;20014;-68
2023/05/26 02:49:54;;;;;;;10.10;4.97;;;13.60;1.00;;;;;;7378020;19;20023;-69
2023/05/26 02:52:25;;;;;;;9.48;5.45;;;13.60;1.00;;;;;;7381098;19;20007;-68
2023/05/26 02:54:55;;;;;;;11.35;6.65;;;13.60;1.00;;;;;;7379888;19;20014;-69
2023/05/26 02:57:25;;;;;;;8.20;5.78;;;13.60;1.00;;;;;;7381184;19;20866;-69
2023/05/26 02:59:58;;;;;;;11.68;5.95;;;13.50;1.00;;;;;;7397695;19;20018;-69
2023/05/26 03:02:28;;;;;;;12.35;5.90;;;13.60;1.00;;;;;;7380757;19;20011;-69
2023/05/26 03:04:59;;;;;;;8.73;5.70;;;13.50;1.00;;;;;;7380268;19;20055;-68
2023/05/26 03:07:32;;;;;;;10.75;5.82;;;13.50;1.00;;;;;;7380672;19;20082;-67
2023/05/26 03:10:02;;;;;;;8.63;6.03;;;13.40;1.00;;;;;;7376396;19;20010;-68
2023/05/26 03:12:32;;;;;;;11.05;6.45;;;13.40;1.00;;;;;;7381326;19;20046;-67
2023/05/26 03:15:06;;;;;;;8.98;5.63;;;13.40;1.00;;;;;;7402036;19;20018;-68
2023/05/26 03:17:35;;;;;;;10.48;5.63;;;13.30;1.00;;;;;;7380660;19;20090;-68
2023/05/26 03:20:06;;;;;;;10.38;6.25;;;13.20;1.00;;;;;;7375038;19;20099;-68
2023/05/26 03:22:36;;;;;;;12.38;6.28;;;13.20;1.00;;;;;;7380287;19;20010;-69
2023/05/26 03:25:21;;;;;;;12.88;5.75;;;13.20;1.00;;;;;;7380404;19;20007;-68
2023/05/26 03:27:53;;;;;;;12.20;6.40;;;13.10;1.00;;;;;;7379363;19;20010;-68
2023/05/26 03:30:26;;;;;;;10.57;6.38;;;13.10;1.00;;;;;;7374744;19;20088;-68
2023/05/26 03:32:56;;;;;;;11.43;6.32;;;13.10;1.00;;;;;;7402125;19;20022;-68
2023/05/26 03:35:26;;;;;;;9.38;6.45;;;13.10;1.00;;;;;;7379009;19;20485;-68
2023/05/26 03:37:56;;;;;;;9.95;6.72;;;13.00;1.00;;;;;;7379286;19;20102;-68
2023/05/26 03:40:26;;;;;;;11.10;6.53;;;13.00;1.00;;;;;;7376129;19;20014;-68
2023/05/26 03:42:56;;;;;;;11.27;6.93;;;13.00;1.00;;;;;;7380427;19;20443;-68
2023/05/26 03:45:28;;;;;;;11.27;6.80;;;13.00;1.00;;;;;;7379366;19;20039;-68
2023/05/26 03:47:58;;;;;;;9.95;6.47;;;13.00;1.00;;;;;;7397438;19;20003;-68
2023/05/26 03:50:28;;;;;;;15.07;7.60;;;13.00;1.00;;;;;;7372171;19;20038;-68
2023/05/26 03:52:59;;;;;;;12.20;7.47;;;13.00;1.00;;;;;;7370097;19;20118;-68
2023/05/26 03:55:29;;;;;;;12.00;7.40;;;13.00;1.00;;;;;;7371021;19;20010;-68
2023/05/26 03:57:59;;;;;;;13.80;7.70;;;13.10;1.00;;;;;;7372067;19;20367;-68
2023/05/26 04:00:32;;;;;;;13.02;6.40;;;13.10;1.00;;;;;;7365882;19;20388;-68
2023/05/26 04:03:03;;;;;;;12.27;7.18;;;13.10;1.00;;;;;;7394359;19;20160;-68
2023/05/26 04:05:33;;;;;;;10.02;6.47;;;13.10;1.00;;;;;;7371473;19;20038;-68
2023/05/26 04:08:03;;;;;;;13.98;7.68;;;13.20;1.00;;;;;;7371330;19;20021;-68
2023/05/26 04:10:33;;;;;;;12.07;6.85;;;13.30;1.00;;;;;;7368999;19;20014;-68
2023/05/26 04:13:03;;;;;;;11.25;7.32;;;13.20;1.00;;;;;;7372351;19;20006;-67
2023/05/26 04:15:35;;;;;;;11.48;6.32;;;13.30;1.00;;;;;;7371615;19;20078;-68
2023/05/26 04:18:05;;;;;;;10.90;6.63;;;13.60;1.00;;;;;;7393371;19;20002;-68
2023/05/26 04:20:35;;;;;;;12.63;7.13;;;13.70;1.00;;;;;;7365891;19;20034;-67
2023/05/26 04:23:05;;;;;;;10.60;7.18;;;13.50;1.00;;;;;;7371075;19;20054;-67
2023/05/26 04:25:35;;;;;;;11.98;6.65;;;13.60;1.00;;;;;;7371047;19;20085;-67
2023/05/26 04:28:05;;;;;;;16.50;7.20;;;13.70;1.00;;;;;;7371068;19;20018;-68
2023/05/26 04:30:39;;;;;;;11.23;6.85;;;13.80;1.00;;;;;;7367770;19;20021;-68
2023/05/26 04:33:12;;;;;;;13.43;7.13;;;13.80;1.00;;;;;;7392749;19;20014;-68
2023/05/26 04:35:44;;;;;;;14.25;7.55;;;13.80;1.00;;;;;;7369102;19;20611;-67
2023/05/26 04:38:15;;;;;;;10.10;6.53;;;13.80;1.00;;;;;;7369239;19;20010;-68
2023/05/26 04:40:46;;;;;;;10.00;6.93;;;13.90;1.00;;;;;;7368218;19;20042;-68
2023/05/26 04:43:16;;;;;;;10.80;6.82;;;14.00;1.00;;;;;;7371162;19;20007;-68
2023/05/26 04:45:48;;;;;;;12.07;6.60;;;15.20;1.00;;;;;;7368631;19;20014;-68
2023/05/26 04:48:20;;;;;;;11.30;6.65;;;15.70;1.00;;;;;;7369488;19;20015;-68
2023/05/26 04:50:50;;;;;;;8.82;5.97;;;16.30;1.00;;;;;;7388152;19;20018;-68
2023/05/26 04:53:20;;;;;;;11.18;6.55;;;17.80;1.00;;;;;;7369961;19;20363;-68
2023/05/26 04:55:51;;;;;;;14.95;7.20;;;18.30;1.00;;;;;;7370044;19;20003;-68
2023/05/26 04:58:21;;;;;;;9.07;5.95;;;18.70;1.00;;;;;;7360308;19;20018;-68
2023/05/26 05:00:55;;;;;;;11.57;5.80;;;18.60;1.00;;;;;;7365484;19;20017;-68
2023/05/26 05:03:25;;;;;;;14.02;6.68;;;19.10;1.00;;;;;;7367775;19;20018;-69
2023/05/26 05:05:55;;;;;;;13.02;6.30;;;18.50;1.00;;;;;;7392027;19;20333;-68
2023/05/26 05:08:25;;;;;;;13.68;7.10;;;18.40;1.00;;;;;;7369062;19;20010;-68
2023/05/26 05:10:55;;;;;;;10.90;6.30;;;18.90;1.00;;;;;;7367044;19;20039;-68
2023/05/26 05:13:25;;;;;;;11.02;6.63;;;18.60;1.00;;;;;;7367667;19;20003;-68
2023/05/26 05:15:57;;;;;;;13.98;7.13;;;19.50;1.00;;;;;;7369695;19;20010;-68
2023/05/26 05:18:27;;;;;;;10.23;7.35;;;18.90;1.00;;;;;;7369050;19;20582;-67
2023/05/26 05:20:57;;;;;;;8.88;6.63;;;18.80;1.00;;;;;;7385851;19;20467;-68
2023/05/26 05:23:30;;;;;;;17.25;6.25;;;19.60;1.00;;;;;;7368177;19;20542;-68
2023/05/26 05:26:00;;;;;;;10.88;6.68;;;20.20;1.00;;;;;;7368119;19;20466;-68
2023/05/26 05:28:30;;;;;;;9.75;6.47;;;19.50;1.00;;;;;;7368586;19;20021;-68
2023/05/26 05:31:02;;;;;;;10.70;6.45;;;19.30;1.00;;;;;;7365106;19;20074;-68
2023/05/26 05:33:32;;;;;;;11.25;7.03;;;19.10;1.00;;;;;;7367390;19;20037;-68
2023/05/26 05:36:02;;;;;;;12.85;7.18;;;19.90;1.00;;;;;;7390260;19;20023;-68
2023/05/26 05:38:32;;;;;;;11.73;6.80;;;19.30;1.00;;;;;;7367543;19;20094;-67
2023/05/26 05:41:02;;;;;;;13.05;6.97;;;19.20;1.00;;;;;;7364131;19;20046;-68
2023/05/26 05:43:32;;;;;;;10.73;5.93;;;18.80;1.00;;;;;;7366295;19;20014;-68
2023/05/26 05:46:05;;;;;;;15.77;7.75;;;18.10;1.00;;;;;;7367096;19;20391;-68
2023/05/26 05:48:35;;;;;;;11.07;6.50;;;19.00;1.00;;;;;;7367281;19;20139;-69
2023/05/26 05:51:05;;;;;;;13.48;7.68;;;18.90;1.00;;;;;;7385267;19;20112;-68
2023/05/26 05:53:35;;;;;;;11.02;7.25;;;18.70;1.00;;;;;;7365494;19;20021;-68
2023/05/26 05:56:05;;;;;;;13.75;7.97;;;18.00;1.00;;;;;;7366979;19;20083;-69
2023/05/26 05:58:35;;;;;;;13.68;7.28;;;17.90;1.00;;;;;;7366137;19;20010;-69
2023/05/26 06:01:07;;;;;;;15.15;7.28;;;16.70;1.00;;;;;;7356165;19;20019;-69
2023/05/26 06:03:37;;;;;;;15.90;7.30;;;16.90;1.00;;;;;;7366373;19;20014;-69
2023/05/26 06:06:08;;;;;;;12.45;7.20;;;17.80;1.00;;;;;;7389093;19;20034;-70
2023/05/26 06:08:38;;;;;;;13.07;7.35;;;18.40;1.00;;;;;;7366763;19;20105;-69
2023/05/26 06:11:08;;;;;;;12.95;7.35;;;18.40;1.00;;;;;;7364117;19;20014;-69
2023/05/26 06:13:38;;;;;;;10.82;7.68;;;17.60;1.00;;;;;;7366628;19;20042;-69
2023/05/26 06:16:11;;;;;;;16.67;7.32;;;17.50;1.00;;;;;;7366543;19;20086;-68
2023/05/26 06:18:41;;;;;;;13.38;7.25;;;17.80;1.00;;;;;;7366277;19;20030;-68
2023/05/26 06:21:11;;;;;;;11.45;7.30;;;17.00;1.00;;;;;;7385281;19;20035;-68
2023/05/26 06:23:41;;;;;;;12.05;7.15;;;17.50;1.00;;;;;;7366250;19;20035;-68
2023/05/26 06:26:11;;;;;;;15.02;6.88;;;17.60;1.00;;;;;;7365621;19;20487;-68
2023/05/26 06:28:41;;;;;;;14.98;7.38;;;17.90;1.00;;;;;;7366630;19;20034;-68
2023/05/26 06:31:13;;;;;;;11.02;6.65;;;17.30;1.00;;;;;;7362965;19;20023;-69
2023/05/26 06:33:43;;;;;;;14.27;6.90;;;18.40;1.00;;;;;;7366699;19;20015;-69
2023/05/26 06:36:13;;;;;;;13.60;7.63;;;17.40;1.00;;;;;;7387826;19;20047;-69
2023/05/26 06:38:43;;;;;;;10.27;6.72;;;18.20;1.00;;;;;;7365803;19;20074;-69
2023/05/26 06:41:13;;;;;;;13.63;6.75;;;18.70;1.00;;;;;;7363333;19;20010;-69
2023/05/26 06:43:43;;;;;;;13.05;6.85;;;17.60;1.00;;;;;;7366792;19;20011;-69
2023/05/26 06:46:16;;;;;;;14.93;6.75;;;16.80;1.00;;;;;;7366207;19;20034;-69
2023/05/26 06:48:46;;;;;;;12.05;6.13;;;16.80;1.00;;;;;;7365455;19;20015;-70
2023/05/26 06:51:16;;;;;;;12.90;7.05;;;17.00;1.00;;;;;;7362819;19;20046;-70
2023/05/26 06:53:49;;;;;;;12.02;7.05;;;16.30;1.00;;;;;;7387330;19;20077;-69
2023/05/26 06:56:19;;;;;;;13.50;6.75;;;16.60;1.00;;;;;;7364938;19;20027;-69
2023/05/26 06:58:49;;;;;;;13.45;7.65;;;16.60;1.00;;;;;;7363352;19;20042;-68
2023/05/26 07:01:22;;;;;;;9.82;7.22;;;16.70;1.00;;;;;;7363266;19;20011;-68
2023/05/26 07:03:52;;;;;;;12.57;6.25;;;17.00;1.00;;;;;;7363332;19;20169;-69
2023/05/26 07:06:22;;;;;;;13.55;6.97;;;16.80;1.00;;;;;;7365557;19;20014;-70
2023/05/26 07:08:58;;;;;;;11.25;6.68;;;17.30;1.00;;;;;;7385144;19;20052;-69
2023/05/26 07:11:28;;;;;;;10.32;6.63;;;17.50;1.00;;;;;;7363850;19;20015;-69
2023/05/26 07:13:58;;;;;;;9.80;6.97;;;17.40;1.00;;;;;;7364350;19;20023;-69
2023/05/26 07:16:31;;;;;;;11.00;6.90;;;17.40;1.00;;;;;;7365492;19;20367;-69
2023/05/26 07:19:00;;;;;;;11.30;6.47;;;17.20;1.00;;;;;;7362525;19;20018;-70
2023/05/26 07:21:31;;;;;;;11.45;6.60;;;17.90;1.00;;;;;;7363072;19;20014;-69
2023/05/26 07:24:01;;;;;;;11.10;7.35;;;17.40;1.00;;;;;;7385562;19;20096;-70
2023/05/26 07:26:31;;;;;;;10.23;6.82;;;17.60;1.00;;;;;;7367338;19;20447;-68
2023/05/26 07:29:01;;;;;;;10.63;6.82;;;17.90;1.00;;;;;;7369992;19;20038;-70
2023/05/26 07:31:33;;;;;;;10.88;6.72;;;17.70;1.00;;;;;;7371323;19;20099;-70
2023/05/26 07:34:03;;;;;;;14.45;7.13;;;17.80;1.00;;;;;;7370366;19;20019;-69
2023/05/26 07:36:34;;;;;;;16.83;7.40;;;18.00;1.00;;;;;;7372295;19;20010;-69
2023/05/26 07:39:04;;;;;;;13.93;6.90;;;17.50;1.00;;;;;;7391376;19;20043;-69
2023/05/26 07:41:34;;;;;;;14.48;7.53;;;18.00;1.00;;;;;;7368062;19;20061;-69
2023/05/26 07:44:05;;;;;;;12.20;7.03;;;17.50;1.00;;;;;;7371297;19;20754;-69
2023/05/26 07:46:37;;;;;;;14.63;7.38;;;17.50;1.00;;;;;;7372430;19;20019;-68
2023/05/26 07:49:07;;;;;;;13.18;7.28;;;17.60;1.00;;;;;;7369219;19;20048;-68
2023/05/26 07:51:38;;;;;;;11.98;7.47;;;18.00;1.00;;;;;;7370125;19;20034;-68
2023/05/26 07:54:08;;;;;;;9.57;6.82;;;17.70;1.00;;;;;;7392836;19;20506;-69
2023/05/26 07:56:38;;;;;;;15.05;7.30;;;17.50;1.00;;;;;;7371725;19;20328;-69
2023/05/26 07:59:08;;;;;;;9.05;6.55;;;18.10;1.00;;;;;;7366551;19;20455;-69
2023/05/26 08:01:40;;;;;;;13.13;6.95;;;18.00;1.00;;;;;;7368975;19;20064;-68
2023/05/26 08:04:10;;;;;;;14.80;8.00;;;18.00;1.00;;;;;;7370485;19;20007;-69
2023/05/26 08:06:40;;;;;;;13.07;7.40;;;17.80;1.00;;;;;;7371794;19;20487;-69
2023/05/26 08:09:10;;;;;;;14.27;7.15;;;17.60;1.00;;;;;;7390292;19;20010;-69
2023/05/26 08:11:41;;;;;;;10.20;6.85;;;17.80;1.00;;;;;;7369166;19;20070;-69
2023/05/26 08:14:11;;;;;;;12.57;7.05;;;18.40;1.00;;;;;;7370103;19;20034;-69
2023/05/26 08:16:43;;;;;;;11.63;7.53;;;18.00;1.00;;;;;;7370578;19;20006;-69
2023/05/26 08:19:13;;;;;;;12.38;7.68;;;17.50;1.00;;;;;;7368686;19;20358;-69
2023/05/26 08:21:43;;;;;;;12.85;7.03;;;17.90;1.00;;;;;;7367693;19;20570;-69
2023/05/26 08:24:13;;;;;;;12.30;7.90;;;18.00;1.00;;;;;;7391479;19;20098;-69
2023/05/26 08:26:43;;;;;;;16.40;7.78;;;18.20;1.00;;;;;;7369233;19;20032;-69
2023/05/26 08:29:15;;;;;;;13.27;6.88;;;17.80;1.00;;;;;;7364162;19;20036;-68
2023/05/26 08:31:48;;;;;;;12.50;7.57;;;18.00;1.00;;;;;;7366202;19;20117;-68
2023/05/26 08:34:18;;;;;;;14.98;7.78;;;18.10;1.00;;;;;;7367648;19;20010;-69
2023/05/26 08:36:48;;;;;;;13.02;7.38;;;18.10;1.00;;;;;;7368162;19;20435;-69
2023/05/26 08:39:18;;;;;;;13.25;7.05;;;18.70;1.00;;;;;;7387831;19;20041;-69
2023/05/26 08:41:51;;;;;;;14.05;7.13;;;18.60;1.00;;;;;;7367822;19;20031;-67
2023/05/26 08:44:21;;;;;;;9.90;6.85;;;18.70;1.00;;;;;;7367911;19;20014;-69
2023/05/26 08:46:55;;;;;;;14.38;7.82;;;18.80;1.00;;;;;;7369748;19;20018;-69
2023/05/26 08:49:26;;;;;;;14.45;7.63;;;18.80;1.00;;;;;;7366482;19;20014;-70
2023/05/26 08:52:01;;;;;;;10.70;7.00;;;18.10;1.00;;;;;;7368397;19;20404;-70
2023/05/26 08:54:31;;;;;;;15.98;7.50;;;18.40;1.00;;;;;;7389724;19;20499;-70
2023/05/26 08:57:05;;;;;;;19.10;8.73;;;18.70;1.00;;;;;;7369437;19;20015;-69
2023/05/26 08:59:35;;;;;;;9.55;6.75;;;18.80;1.00;;;;;;7364708;19;20014;-69
2023/05/26 09:02:09;;;;;;;12.57;7.05;;;19.10;1.00;;;;;;7368214;19;20121;-69
2023/05/26 09:04:39;;;;;;;12.15;6.38;;;19.20;1.00;;;;;;7368897;19;20014;-69
2023/05/26 09:07:09;;;;;;;10.65;6.95;;;19.20;1.00;;;;;;7368962;19;20058;-69
2023/05/26 09:09:54;;;;;;;10.25;7.05;;;18.90;1.00;;;;;;7364604;19;20018;-69
2023/05/26 09:12:30;;;;;;;10.02;8.02;;;19.30;1.00;;;;;;7390388;19;20507;-69
2023/05/26 09:15:00;;;;;;;13.45;7.53;;;19.00;1.00;;;;;;7366755;19;20014;-68
2023/05/26 09:17:35;;;;;;;13.88;7.65;;;19.00;1.00;;;;;;7367635;19;20420;-68
2023/05/26 09:20:08;;;;;;;15.85;7.32;;;19.20;1.00;;;;;;7362974;19;20101;-69
2023/05/26 09:22:40;;;;;;;11.82;6.88;;;19.60;1.00;;;;;;7368565;19;20014;-69
2023/05/26 09:25:10;;;;;;;14.52;7.20;;;20.00;1.00;;;;;;7366896;19;20035;-69
2023/05/26 09:27:40;;;;;;;11.13;7.60;;;19.20;1.00;;;;;;7367672;19;20011;-69
2023/05/26 09:30:11;;;;;;;11.85;7.03;;;19.10;1.00;;;;;;7384919;19;20018;-69
2023/05/26 09:32:44;;;;;;;11.65;7.20;;;19.90;1.00;;;;;;7367541;19;20014;-68
2023/05/26 09:35:14;;;;;;;12.00;6.88;;;19.60;1.00;;;;;;7366322;19;20033;-68
2023/05/26 09:37:45;;;;;;;12.15;7.00;;;19.40;1.00;;;;;;7368032;19;20006;-68
2023/05/26 09:40:18;;;;;;;12.07;6.88;;;19.60;1.00;;;;;;7364777;19;20142;-69
2023/05/26 09:42:55;;;;;;;11.82;6.60;;;19.70;1.00;;;;;;7367044;19;20094;-68
2023/05/26 09:45:25;;;;;;;14.70;7.82;;;20.00;1.00;;;;;;7388970;19;20018;-69
2023/05/26 09:47:58;;;;;;;13.73;7.35;;;20.00;1.00;;;;;;7367234;19;20509;-69
2023/05/26 09:50:32;;;;;;;18.33;7.37;;;20.10;1.00;;;;;;7360215;19;20014;-68
2023/05/26 09:53:03;;;;;;;11.80;6.40;;;19.30;1.00;;;;;;7367061;19;20244;-68
2023/05/26 09:55:33;;;;;;;13.90;6.65;;;19.90;1.00;;;;;;7367108;19;20010;-69
2023/05/26 09:58:06;;;;;;;12.65;6.85;;;20.10;1.00;;;;;;7366209;19;20024;-69
2023/05/26 10:00:37;;;;;;;14.38;8.23;;;20.10;1.00;;;;;;7362550;19;20010;-69
2023/05/26 10:03:10;;;;;;;13.02;6.90;;;19.80;1.00;;;;;;7387579;19;20044;-68
2023/05/26 10:05:45;;;;;;;10.63;6.05;;;19.70;1.00;;;;;;7364917;19;20494;-68
2023/05/26 10:08:39;;;;;;;13.85;6.93;;;20.10;1.00;;;;;;7364381;19;20478;-69
2023/05/26 10:11:10;;;;;;;12.27;6.68;;;20.20;1.00;;;;;;7364698;19;20082;-69
2023/05/26 10:13:41;;;;;;;11.85;7.18;;;20.20;1.00;;;;;;7367020;19;20019;-69
2023/05/26 10:16:11;;;;;;;12.80;6.63;;;20.00;1.00;;;;;;7366718;19;20035;-68
2023/05/26 10:18:43;;;;;;;12.25;6.75;;;20.40;1.00;;;;;;7364851;19;20568;-69
2023/05/26 10:21:15;;;;;;;11.35;6.00;;;20.40;1.00;;;;;;7384802;19;20056;-69
2023/05/26 10:23:58;;;;;;;11.02;6.57;;;20.90;1.00;;;;;;7362905;19;20018;-69
2023/05/26 10:26:36;;;;;;;14.02;7.18;;;20.70;1.00;;;;;;7365605;19;20031;-69
2023/05/26 10:29:08;;;;;;;13.00;7.25;;;20.50;1.00;;;;;;7364079;19;20090;-69
2023/05/26 10:31:40;;;;;;;9.52;6.22;;;20.60;1.00;;;;;;7364749;19;20078;-68
2023/05/26 10:34:42;;;;;;;8.10;5.90;;;20.60;1.00;;;;;;7365883;19;20011;-68
2023/05/26 10:37:17;;;;;;;8.98;6.10;;;20.40;1.00;;;;;;7366283;19;20017;-69
2023/05/26 10:39:47;;;;;;;;;;;20.70;1.00;;;;;;7362685;19;20010;-68
2023/05/26 10:42:20;;;;;;;9.68;5.93;;;21.00;1.00;;;;;;7387002;19;20339;-69
2023/05/26 10:44:54;;;;;;;12.73;6.38;;;20.60;1.00;;;;;;7364118;19;20014;-68
2023/05/26 10:47:25;;;;;;;8.93;5.88;;;21.10;1.00;;;;;;7365512;19;20475;-68
2023/05/26 10:49:58;;;;;;;8.25;5.38;;;21.60;1.00;;;;;;7356984;19;20101;-69
2023/05/26 10:52:29;;;;;;;8.07;5.47;;;21.50;1.00;;;;;;7364296;19;20074;-69
2023/05/26 10:55:02;;;;;;;10.25;6.05;;;21.50;1.00;;;;;;7361882;19;20014;-69
2023/05/26 10:57:33;;;;;;;10.63;5.78;;;21.10;1.00;;;;;;7379719;19;20038;-70
2023/05/26 11:00:23;;;;;;;10.23;5.60;;;21.20;1.00;;;;;;7381088;19;20094;-68
2023/05/26 11:02:53;;;;;;;8.70;5.10;;;21.50;1.00;;;;;;7369940;19;20014;-69
2023/05/26 11:05:35;;;;;;;10.13;6.05;;;21.70;1.00;;;;;;7366272;19;20038;-69
2023/05/26 11:08:05;;;;;;;9.57;5.90;;;21.70;1.00;;;;;;7371027;19;20153;-69
2023/05/26 11:11:02;;;;;;;8.85;5.45;;;21.60;1.00;;;;;;7367065;19;20044;-68
2023/05/26 11:13:43;;;;;;;13.15;6.10;;;21.00;1.00;;;;;;7370609;19;20021;-68
2023/05/26 11:16:18;;;;;;;7.90;5.30;;;21.20;1.00;;;;;;7370871;19;20014;-70
2023/05/26 11:18:52;;;;;;;11.30;6.10;;;21.30;1.00;;;;;;7367755;19;20035;-70
2023/05/26 11:21:27;;;;;;;9.35;5.75;;;21.20;1.00;;;;;;7387100;19;20030;-69
2023/05/26 11:23:59;;;;;;;10.30;6.03;;;21.40;1.00;;;;;;7367641;19;20018;-69
2023/05/26 11:26:30;;;;;;;10.07;6.18;;;21.60;1.00;;;;;;7369454;19;20042;-69
2023/05/26 11:29:03;;;;;;;9.10;5.70;;;21.10;1.00;;;;;;7367636;19;20483;-70
2023/05/26 11:31:33;;;;;;;12.15;6.07;;;21.30;1.00;;;;;;7367939;19;20011;-69
2023/05/26 11:34:03;;;;;;;8.57;5.70;;;21.30;1.00;;;;;;7369412;19;20010;-68
2023/05/26 11:36:37;;;;;;;9.98;5.93;;;21.60;1.00;;;;;;7370788;19;20031;-69
2023/05/26 11:39:07;;;;;;;10.35;5.43;;;21.90;1.00;;;;;;7390544;19;20014;-69
2023/05/26 11:41:37;;;;;;;8.55;5.13;;;21.70;1.00;;;;;;7368900;19;20007;-69
2023/05/26 11:44:12;;;;;;;8.90;5.75;;;21.60;1.00;;;;;;7366780;19;20055;-70
2023/05/26 11:46:43;;;;;;;9.75;5.88;;;21.80;1.00;;;;;;7367891;19;20007;-69
2023/05/26 11:49:14;;;;;;;9.88;5.40;;;21.90;1.00;;;;;;7367194;19;20022;-68
2023/05/26 11:51:51;;;;;;;10.15;5.38;;;22.00;1.00;;;;;;7367917;19;20032;-69
2023/05/26 11:54:22;;;;;;;9.27;5.43;;;21.70;1.00;;;;;;7390334;19;20074;-69
2023/05/26 11:56:52;;;;;;;9.15;5.43;;;22.00;1.00;;;;;;7366790;19;20021;-69
2023/05/26 11:59:23;;;;;;;11.27;5.55;;;22.40;1.00;;;;;;7366774;19;20086;-70
2023/05/26 12:01:53;;;;;;;10.50;5.22;;;22.20;1.00;;;;;;7368103;19;20601;-69
2023/05/26 12:04:30;;;;;;;8.60;5.18;;;21.80;1.00;;;;;;7368722;19;20014;-69
2023/05/26 12:07:03;;;;;;;7.32;5.25;;;21.90;1.00;;;;;;7365726;19;20011;-70
2023/05/26 12:09:33;;;;;;;10.55;4.85;;;21.80;1.00;;;;;;7371577;19;20486;-70
2023/05/26 12:12:03;;;;;;;8.38;5.03;;;22.10;1.00;;;;;;7388564;19;20640;-69
2023/05/26 12:14:40;;;;;;;12.73;5.90;;;22.50;1.00;;;;;;7366574;19;20019;-69
2023/05/26 12:17:14;;;;;;;7.80;5.18;;;21.90;1.00;;;;;;7367755;19;20025;-69
2023/05/26 12:19:45;;;;;;;13.93;5.72;;;22.00;1.00;;;;;;7363663;19;20038;-70
2023/05/26 12:22:17;;;;;;;8.40;4.93;;;22.10;1.00;;;;;;7368057;19;20089;-70
2023/05/26 12:24:47;;;;;;;9.57;5.30;;;22.20;1.00;;;;;;7367074;19;20065;-69
2023/05/26 12:27:17;;;;;;;6.28;4.90;;;21.70;1.00;;;;;;7390140;19;20018;-69
2023/05/26 12:29:47;;;;;;;10.73;5.15;;;22.00;1.00;;;;;;7354439;19;20017;-69
2023/05/26 12:32:17;;;;;;;7.45;5.35;;;22.10;1.00;;;;;;7367717;19;20038;-70
2023/05/26 12:34:47;;;;;;;9.00;4.72;;;22.30;1.00;;;;;;7367934;19;20013;-69
2023/05/26 12:37:20;;;;;;;10.48;5.18;;;22.00;1.00;;;;;;7367989;19;20462;-69
2023/05/26 12:39:50;;;;;;;7.65;4.68;;;21.90;1.00;;;;;;7364381;19;20014;-70
2023/05/26 12:42:20;;;;;;;8.00;5.20;;;22.40;1.00;;;;;;7389015;19;20039;-69
2023/05/26 12:44:50;;;;;;;9.93;4.85;;;22.50;1.00;;;;;;7364784;19;20045;-70
2023/05/26 12:47:19;;;;;;;8.77;4.80;;;22.70;1.00;;;;;;7367133;19;20018;-70
2023/05/26 12:49:49;;;;;;;8.88;4.75;;;23.00;1.00;;;;;;7364145;19;20027;-70
2023/05/26 12:52:22;;;;;;;9.63;4.82;;;22.40;1.00;;;;;;7367987;19;20015;-70
2023/05/26 12:54:53;;;;;;;8.73;4.60;;;22.60;1.00;;;;;;7361764;19;20015;-70
2023/05/26 12:57:26;;;;;;;7.72;4.97;;;22.70;1.00;;;;;;7389113;19;20096;-70
2023/05/26 12:59:56;;;;;;;7.78;4.45;;;22.80;1.00;;;;;;7361150;19;20041;-70
2023/05/26 13:02:26;;;;;;;8.73;4.97;;;23.00;1.00;;;;;;7363053;19;20015;-69
2023/05/26 13:04:56;;;;;;;8.02;4.82;;;23.20;1.00;;;;;;7363720;19;20521;-68
2023/05/26 13:07:29;;;;;;;10.25;4.95;;;22.80;1.00;;;;;;7363568;19;20034;-67
2023/05/26 13:09:59;;;;;;;8.63;5.10;;;22.80;1.00;;;;;;7360027;19;20605;-68
2023/05/26 13:12:29;;;;;;;8.15;4.88;;;22.40;1.00;;;;;;7387630;19;20022;-68
2023/05/26 13:14:59;;;;;;;10.63;5.53;;;22.70;1.00;;;;;;7362668;19;20018;-68